createdAt,value
2023-03-29T00:02:11.167Z,7.35
2023-03-29T00:04:45.243Z,7.93
2023-03-29T00:07:18.399Z,7.22
2023-03-29T00:09:51.489Z,8.88
2023-03-29T00:12:24.460Z,7.63
2023-03-29T00:14:58.803Z,8.17
2023-03-29T00:17:32.036Z,7.57
2023-03-29T00:20:08.548Z,6.88
2023-03-29T00:22:43.136Z,7.55
2023-03-29T00:25:16.381Z,6.70
2023-03-29T00:27:49.417Z,7.80
2023-03-29T00:30:23.815Z,7.23
2023-03-29T00:33:02.042Z,6.53
2023-03-29T00:35:35.524Z,5.80
2023-03-29T00:38:08.546Z,7.65
2023-03-29T00:40:43.813Z,6.53
2023-03-29T00:43:17.609Z,6.13
2023-03-29T00:45:52.044Z,7.38
2023-03-29T00:48:29.043Z,6.40
2023-03-29T00:51:08.208Z,7.05
2023-03-29T00:53:48.381Z,5.60
2023-03-29T00:56:25.110Z,6.53
2023-03-29T00:59:02.368Z,6.20
2023-03-29T01:01:43.362Z,5.22
2023-03-29T01:04:21.153Z,5.43
2023-03-29T01:06:58.337Z,5.60
2023-03-29T01:09:35.073Z,5.95
2023-03-29T01:12:14.414Z,5.43
2023-03-29T01:14:52.494Z,5.43
2023-03-29T01:17:26.959Z,5.28
2023-03-29T01:20:10.802Z,5.22
2023-03-29T01:23:06.610Z,5.43
2023-03-29T01:25:47.300Z,5.80
2023-03-29T01:28:24.379Z,4.95
2023-03-29T01:31:03.802Z,5.13
2023-03-29T01:33:42.669Z,5.43
2023-03-29T01:36:20.161Z,4.72
2023-03-29T01:38:58.158Z,5.22
2023-03-29T01:41:41.357Z,5.40
2023-03-29T01:44:20.639Z,5.35
2023-03-29T01:46:56.900Z,4.55
2023-03-29T01:49:38.070Z,4.43
2023-03-29T01:52:17.403Z,4.90
2023-03-29T01:54:57.263Z,4.95
2023-03-29T01:57:33.065Z,5.13
2023-03-29T02:00:11.084Z,4.85
2023-03-29T02:02:48.033Z,5.38
2023-03-29T02:05:24.525Z,4.88
2023-03-29T02:08:00.003Z,4.72
2023-03-29T02:10:35.085Z,5.65
2023-03-29T02:13:09.432Z,5.63
2023-03-29T02:15:45.627Z,5.43
2023-03-29T02:18:21.055Z,5.57
2023-03-29T02:20:56.103Z,5.70
2023-03-29T02:23:34.961Z,5.43
2023-03-29T02:26:09.080Z,6.07
2023-03-29T02:28:42.818Z,5.55
2023-03-29T02:31:24.944Z,5.38
2023-03-29T02:34:03.399Z,5.20
2023-03-29T02:36:41.720Z,5.40
2023-03-29T02:39:17.095Z,6.15
2023-03-29T02:41:52.406Z,5.10
2023-03-29T02:44:28.915Z,5.88
2023-03-29T02:47:07.746Z,6.10
2023-03-29T02:49:40.721Z,4.78
2023-03-29T02:52:18.818Z,5.32
2023-03-29T02:54:55.168Z,5.97
2023-03-29T02:57:28.759Z,5.63
2023-03-29T03:00:04.633Z,4.70
2023-03-29T03:02:39.292Z,5.82
2023-03-29T03:05:14.182Z,5.03
2023-03-29T03:07:47.448Z,6.38
2023-03-29T03:10:20.452Z,5.25
2023-03-29T03:12:53.455Z,5.13
2023-03-29T03:15:27.394Z,5.13
2023-03-29T03:18:02.239Z,4.65
2023-03-29T03:20:35.320Z,5.90
2023-03-29T03:23:09.757Z,5.95
2023-03-29T03:25:45.840Z,5.15
2023-03-29T03:28:20.283Z,4.90
2023-03-29T03:30:54.236Z,5.72
2023-03-29T03:33:47.438Z,4.32
2023-03-29T03:36:43.227Z,5.63
2023-03-29T03:39:18.364Z,8.98
2023-03-29T03:41:51.503Z,6.60
2023-03-29T03:44:24.942Z,7.53
2023-03-29T03:47:14.798Z,8.95
2023-03-29T03:49:49.977Z,6.78
2023-03-29T03:52:25.273Z,5.63
2023-03-29T03:57:47.959Z,5.57
2023-03-29T04:00:24.360Z,6.53
2023-03-29T04:03:17.183Z,6.85
2023-03-29T04:05:52.052Z,8.38
2023-03-29T04:08:27.256Z,8.60
2023-03-29T04:11:15.331Z,9.93
2023-03-29T04:13:48.885Z,9.23
2023-03-29T04:16:34.920Z,8.95
2023-03-29T04:19:23.090Z,8.25
2023-03-29T04:21:57.920Z,8.50
2023-03-29T04:24:30.944Z,7.32
2023-03-29T04:27:24.209Z,7.32
2023-03-29T04:29:57.319Z,7.40
2023-03-29T04:32:50.500Z,7.65
2023-03-29T04:35:24.982Z,6.82
2023-03-29T04:37:59.545Z,7.40
2023-03-29T04:40:33.513Z,7.50
2023-03-29T04:43:23.764Z,7.32
2023-03-29T04:46:13.270Z,6.18
2023-03-29T04:49:05.906Z,7.25
2023-03-29T04:51:42.377Z,6.43
2023-03-29T04:54:17.702Z,7.55
2023-03-29T04:57:19.693Z,7.05
2023-03-29T05:00:16.952Z,6.95
2023-03-29T05:03:08.113Z,6.68
2023-03-29T05:05:45.364Z,7.07
2023-03-29T05:08:18.535Z,6.20
2023-03-29T05:11:13.642Z,5.85
2023-03-29T05:13:48.345Z,4.90
2023-03-29T05:16:21.658Z,6.68
2023-03-29T05:18:55.378Z,5.97
2023-03-29T05:21:29.435Z,5.50
2023-03-29T05:24:06.132Z,5.60
2023-03-29T05:27:00.502Z,6.93
2023-03-29T05:29:36.737Z,5.47
2023-03-29T05:32:28.698Z,6.22
2023-03-29T05:35:01.876Z,6.35
2023-03-29T05:37:35.127Z,7.65
2023-03-29T05:40:10.370Z,7.18
2023-03-29T05:43:02.578Z,5.93
2023-03-29T05:45:35.613Z,5.57
2023-03-29T05:48:08.939Z,5.75
2023-03-29T05:50:44.437Z,5.60
2023-03-29T05:53:20.121Z,6.43
2023-03-29T05:55:54.762Z,4.95
2023-03-29T05:58:31.106Z,4.95
2023-03-29T06:01:06.051Z,4.53
2023-03-29T06:04:02.207Z,4.93
2023-03-29T06:06:45.378Z,6.27
2023-03-29T06:09:19.117Z,6.03
2023-03-29T06:12:04.015Z,6.90
2023-03-29T06:14:48.265Z,5.63
2023-03-29T06:17:31.643Z,5.30
2023-03-29T06:20:08.800Z,5.60
2023-03-29T06:22:42.889Z,7.47
2023-03-29T06:25:18.492Z,5.13
2023-03-29T06:27:54.212Z,5.55
2023-03-29T06:30:28.852Z,4.85
2023-03-29T06:33:02.898Z,5.50
2023-03-29T06:35:59.843Z,6.20
2023-03-29T06:38:35.311Z,5.45
2023-03-29T06:41:21.567Z,5.55
2023-03-29T06:44:23.234Z,5.25
2023-03-29T06:47:06.267Z,5.55
2023-03-29T06:49:39.534Z,6.03
2023-03-29T06:52:26.104Z,5.25
2023-03-29T06:55:01.695Z,5.05
2023-03-29T06:57:35.221Z,5.80
2023-03-29T07:00:17.077Z,6.18
2023-03-29T07:03:26.862Z,5.63
2023-03-29T07:06:03.948Z,5.85
2023-03-29T07:08:43.495Z,5.45
2023-03-29T07:11:24.169Z,5.50
2023-03-29T07:14:03.881Z,5.13
2023-03-29T07:16:40.053Z,5.95
2023-03-29T07:19:29.093Z,5.13
2023-03-29T07:22:02.335Z,4.88
2023-03-29T07:24:49.359Z,5.75
2023-03-29T07:27:22.745Z,5.80
2023-03-29T07:29:56.975Z,4.45
2023-03-29T07:32:32.162Z,4.18
2023-03-29T07:35:30.824Z,4.18
2023-03-29T07:38:04.521Z,4.88
2023-03-29T07:40:38.650Z,4.10
2023-03-29T07:43:30.387Z,3.45
2023-03-29T07:46:04.872Z,3.75
2023-03-29T07:48:40.012Z,3.40
2023-03-29T07:51:17.390Z,3.58
2023-03-29T07:54:05.555Z,4.25
2023-03-29T07:56:41.637Z,3.50
2023-03-29T07:59:25.264Z,3.78
2023-03-29T08:02:08.353Z,4.25
2023-03-29T08:05:06.392Z,3.78
2023-03-29T08:08:01.172Z,3.70
2023-03-29T08:10:58.222Z,3.60
2023-03-29T08:13:42.082Z,4.10
2023-03-29T08:16:33.609Z,4.13
2023-03-29T08:19:14.677Z,3.45
2023-03-29T08:22:10.885Z,3.75
2023-03-29T08:25:04.317Z,4.30
2023-03-29T08:27:42.546Z,3.92
2023-03-29T08:30:17.458Z,4.00
2023-03-29T08:32:53.007Z,4.35
2023-03-29T08:35:28.284Z,3.30
2023-03-29T08:38:21.973Z,3.60
2023-03-29T08:40:58.043Z,3.90
2023-03-29T08:44:02.079Z,3.63
2023-03-29T08:47:03.688Z,3.83
2023-03-29T08:50:02.530Z,4.07
2023-03-29T08:52:50.108Z,4.55
2023-03-29T08:55:49.003Z,4.25
2023-03-29T08:58:56.359Z,3.65
2023-03-29T09:01:35.410Z,3.53
2023-03-29T09:04:14.856Z,4.45
2023-03-29T09:07:12.445Z,3.65
2023-03-29T09:09:49.866Z,3.10
2023-03-29T09:12:50.461Z,3.40
2023-03-29T09:15:31.829Z,3.17
2023-03-29T09:18:23.863Z,3.78
2023-03-29T09:21:02.146Z,3.15
2023-03-29T09:24:08.577Z,3.50
2023-03-29T09:27:05.724Z,2.75
2023-03-29T09:30:00.656Z,2.60
2023-03-29T09:32:55.526Z,2.85
2023-03-29T09:35:39.120Z,2.70
2023-03-29T09:38:15.077Z,2.58
2023-03-29T09:40:52.804Z,3.50
2023-03-29T09:43:33.475Z,2.50
2023-03-29T09:46:18.212Z,2.85
2023-03-29T09:48:54.735Z,3.50
2023-03-29T09:51:31.172Z,3.05
2023-03-29T09:54:04.633Z,2.65
2023-03-29T09:57:00.267Z,3.83
2023-03-29T09:59:33.454Z,3.35
2023-03-29T10:02:08.546Z,2.88
2023-03-29T10:04:44.633Z,3.50
2023-03-29T10:07:23.774Z,3.45
2023-03-29T10:10:02.453Z,3.03
2023-03-29T10:12:36.694Z,3.63
2023-03-29T10:15:26.745Z,3.35
2023-03-29T10:18:06.934Z,2.88
2023-03-29T10:20:42.139Z,3.20
2023-03-29T10:23:19.432Z,3.17
2023-03-29T10:25:53.235Z,3.28
2023-03-29T10:28:31.114Z,2.92
2023-03-29T10:31:08.159Z,2.75
2023-03-29T10:33:41.872Z,2.97
2023-03-29T10:36:16.564Z,2.75
2023-03-29T10:38:49.693Z,2.40
2023-03-29T10:41:24.305Z,2.17
2023-03-29T10:43:57.563Z,3.00
2023-03-29T10:46:33.008Z,2.90
2023-03-29T10:49:16.236Z,2.85
2023-03-29T10:51:56.732Z,2.70
2023-03-29T10:54:29.901Z,3.08
2023-03-29T10:57:09.025Z,2.63
2023-03-29T10:59:54.287Z,2.53
2023-03-29T11:02:50.228Z,2.67
2023-03-29T11:05:31.333Z,3.60
2023-03-29T11:08:24.476Z,2.97
2023-03-29T11:11:09.752Z,4.18
2023-03-29T11:13:51.483Z,2.80
2023-03-29T11:16:31.845Z,2.73
2023-03-29T11:19:17.830Z,3.25
2023-03-29T11:21:59.114Z,3.00
2023-03-29T11:24:52.552Z,3.08
2023-03-29T11:27:36.907Z,2.55
2023-03-29T11:30:20.514Z,2.97
2023-03-29T11:33:03.772Z,2.63
2023-03-29T11:35:48.861Z,2.30
2023-03-29T11:38:30.503Z,2.80
2023-03-29T11:41:13.565Z,2.83
2023-03-29T11:43:50.724Z,2.58
2023-03-29T11:46:29.066Z,2.80
2023-03-29T11:49:06.263Z,2.80
2023-03-29T11:51:43.797Z,2.20
2023-03-29T11:54:21.720Z,2.65
2023-03-29T11:57:01.811Z,2.67
2023-03-29T11:59:42.163Z,2.28
2023-03-29T12:02:22.816Z,2.58
2023-03-29T12:04:59.869Z,2.90
2023-03-29T12:07:37.976Z,2.83
2023-03-29T12:10:19.011Z,3.45
2023-03-29T12:13:00.988Z,3.03
2023-03-29T12:15:39.233Z,2.85
2023-03-29T12:18:21.265Z,2.47
2023-03-29T12:21:00.171Z,2.53
2023-03-29T12:23:34.700Z,2.20
2023-03-29T12:26:35.148Z,2.15
2023-03-29T12:29:38.061Z,2.25
2023-03-29T12:32:33.004Z,2.30
2023-03-29T12:35:48.857Z,2.53
2023-03-29T12:38:43.486Z,2.95
2023-03-29T12:41:53.458Z,2.83
2023-03-29T12:44:50.510Z,3.08
2023-03-29T12:47:42.488Z,2.75
2023-03-29T12:50:35.116Z,2.75
2023-03-29T12:53:19.726Z,3.03
2023-03-29T12:56:08.920Z,3.15
2023-03-29T12:58:51.414Z,2.92
2023-03-29T13:01:29.248Z,2.75
2023-03-29T13:04:18.475Z,4.80
2023-03-29T13:07:04.081Z,3.47
2023-03-29T13:09:50.015Z,2.58
2023-03-29T13:12:27.846Z,3.03
2023-03-29T13:15:03.391Z,2.65
2023-03-29T13:17:51.331Z,3.42
2023-03-29T13:20:44.594Z,3.50
2023-03-29T13:23:39.253Z,3.30
2023-03-29T13:26:31.625Z,2.97
2023-03-29T13:29:32.981Z,3.15
2023-03-29T13:32:27.381Z,5.07
2023-03-29T13:35:14.180Z,4.50
2023-03-29T13:38:02.294Z,3.25
2023-03-29T13:40:46.921Z,3.15
2023-03-29T13:43:23.716Z,3.35
2023-03-29T13:46:24.577Z,3.47
2023-03-29T13:49:06.885Z,3.08
2023-03-29T13:51:44.997Z,3.67
2023-03-29T13:54:28.288Z,5.60
2023-03-29T13:57:10.369Z,2.97
2023-03-29T13:59:55.797Z,3.45
2023-03-29T14:02:41.720Z,4.88
2023-03-29T14:05:18.932Z,3.80
2023-03-29T14:07:56.637Z,3.63
2023-03-29T14:10:38.068Z,4.97
2023-03-29T14:13:17.044Z,4.32
2023-03-29T14:15:54.814Z,3.88
2023-03-29T14:18:33.296Z,3.47
2023-03-29T14:21:11.009Z,3.70
2023-03-29T14:23:48.442Z,3.42
2023-03-29T14:26:24.080Z,3.20
2023-03-29T14:28:59.019Z,3.47
2023-03-29T14:31:33.987Z,3.72
2023-03-29T14:34:12.477Z,3.80
2023-03-29T14:36:46.876Z,3.50
2023-03-29T14:39:23.679Z,4.50
2023-03-29T14:41:58.175Z,3.83
2023-03-29T14:44:33.227Z,4.00
2023-03-29T14:47:06.545Z,3.42
2023-03-29T14:49:39.702Z,4.03
2023-03-29T14:52:13.761Z,3.75
2023-03-29T14:54:52.292Z,3.05
2023-03-29T14:57:27.281Z,3.55
2023-03-29T15:00:02.433Z,3.67
2023-03-29T15:02:35.685Z,3.15
2023-03-29T15:05:25.751Z,3.30
2023-03-29T15:07:59.507Z,3.40
2023-03-29T15:10:35.660Z,3.10
2023-03-29T15:13:09.758Z,3.80
2023-03-29T15:15:43.093Z,3.30
2023-03-29T15:18:21.854Z,3.80
2023-03-29T15:20:55.582Z,3.65
2023-03-29T15:23:36.880Z,3.55
2023-03-29T15:26:15.829Z,3.20
2023-03-29T15:28:55.502Z,3.70
2023-03-29T15:31:35.746Z,3.40
2023-03-29T15:34:12.499Z,3.72
2023-03-29T15:36:47.397Z,3.45
2023-03-29T15:39:20.980Z,4.45
2023-03-29T15:41:56.873Z,3.47
2023-03-29T15:44:33.859Z,3.63
2023-03-29T15:47:10.706Z,3.55
2023-03-29T15:49:47.740Z,3.50
2023-03-29T15:52:20.839Z,3.28
2023-03-29T15:54:54.164Z,3.03
2023-03-29T15:57:28.695Z,3.90
2023-03-29T16:00:02.758Z,3.83
2023-03-29T16:02:45.594Z,4.50
2023-03-29T16:05:21.893Z,16.42
2023-03-29T16:07:57.913Z,4.35
2023-03-29T16:10:30.950Z,3.95
2023-03-29T16:13:05.468Z,4.38
2023-03-29T16:15:38.723Z,4.55
2023-03-29T16:18:11.766Z,4.60
2023-03-29T16:20:44.843Z,5.68
2023-03-29T16:23:21.071Z,6.18
2023-03-29T16:25:54.217Z,4.75
2023-03-29T16:28:28.718Z,5.10
2023-03-29T16:31:05.260Z,5.55
2023-03-29T16:33:38.768Z,5.38
2023-03-29T16:36:19.978Z,5.90
2023-03-29T16:38:53.775Z,6.05
2023-03-29T16:41:27.814Z,7.75
2023-03-29T16:49:08.912Z,10.05
2023-03-29T16:51:44.150Z,15.82
2023-03-29T16:54:25.845Z,16.83
2023-03-29T16:57:02.574Z,20.15
2023-03-29T16:59:37.514Z,20.20
2023-03-29T17:02:14.276Z,18.25
2023-03-29T17:04:49.322Z,15.50
2023-03-29T17:07:27.575Z,13.52
2023-03-29T17:10:00.703Z,13.68
2023-03-29T17:12:33.864Z,14.60
2023-03-29T17:15:09.483Z,14.40
2023-03-29T17:17:42.574Z,12.73
2023-03-29T17:20:15.701Z,14.98
2023-03-29T17:22:51.654Z,16.70
2023-03-29T17:25:24.853Z,17.45
2023-03-29T17:27:57.931Z,18.25
2023-03-29T17:30:34.449Z,20.43
2023-03-29T17:33:09.472Z,22.85
2023-03-29T17:35:46.245Z,22.33
2023-03-29T17:38:21.157Z,24.23
2023-03-29T17:40:54.337Z,24.80
2023-03-29T17:43:27.344Z,26.55
2023-03-29T17:46:02.225Z,25.33
2023-03-29T17:48:38.214Z,23.52
2023-03-29T17:51:11.237Z,24.60
2023-03-29T17:53:46.097Z,24.40
2023-03-29T17:56:20.276Z,21.65
2023-03-29T17:58:53.584Z,19.10
2023-03-29T18:01:33.521Z,17.15
2023-03-29T18:04:07.589Z,16.52
2023-03-29T18:06:40.632Z,15.10
2023-03-29T18:09:14.133Z,18.60
2023-03-29T18:11:47.150Z,21.48
2023-03-29T18:14:27.887Z,21.17
2023-03-29T18:17:14.993Z,21.70
2023-03-29T18:19:49.218Z,20.80
2023-03-29T18:22:28.860Z,21.00
2023-03-29T18:25:07.183Z,20.75
2023-03-29T18:27:45.161Z,20.60
2023-03-29T18:30:19.272Z,19.95
2023-03-29T18:32:55.184Z,20.83
2023-03-29T18:35:34.981Z,25.05
2023-03-29T18:38:14.167Z,25.23
2023-03-29T18:40:48.347Z,29.85
2023-03-29T18:43:23.391Z,26.70
2023-03-29T18:45:59.427Z,26.10
2023-03-29T18:48:42.016Z,25.50
2023-03-29T18:54:10.249Z,24.85
2023-03-29T18:56:46.964Z,22.40
2023-03-29T18:59:24.754Z,23.48
2023-03-29T19:02:03.936Z,23.13
2023-03-29T19:05:00.861Z,22.30
2023-03-29T19:07:41.768Z,23.35
2023-03-29T19:10:16.484Z,23.25
2023-03-29T19:13:01.411Z,25.58
2023-03-29T19:15:38.408Z,22.73
2023-03-29T19:18:14.417Z,23.30
2023-03-29T19:20:57.961Z,21.48
2023-03-29T19:23:34.183Z,20.33
2023-03-29T19:26:20.387Z,18.98
2023-03-29T19:28:53.848Z,18.65
2023-03-29T19:31:38.246Z,19.85
2023-03-29T19:34:27.883Z,22.70
2023-03-29T19:37:02.423Z,23.23
2023-03-29T19:39:35.463Z,19.23
2023-03-29T19:42:08.821Z,17.83
2023-03-29T19:44:47.051Z,17.58
2023-03-29T19:47:25.322Z,16.42
2023-03-29T19:49:59.639Z,18.02
2023-03-29T19:52:46.684Z,17.10
2023-03-29T19:55:22.644Z,16.30
2023-03-29T19:57:56.662Z,15.98
2023-03-29T20:00:30.040Z,14.70
2023-03-29T20:03:05.278Z,13.95
2023-03-29T20:05:39.883Z,14.32
2023-03-29T20:08:16.593Z,14.98
2023-03-29T20:11:10.427Z,13.85
2023-03-29T20:13:46.410Z,15.30
2023-03-29T20:19:14.130Z,14.15
2023-03-29T20:21:58.962Z,14.02
2023-03-29T20:24:36.362Z,16.73
2023-03-29T20:27:09.697Z,15.57
2023-03-29T20:29:45.420Z,16.60
2023-03-29T20:32:18.517Z,15.55
2023-03-29T20:34:54.597Z,14.82
2023-03-29T20:37:27.711Z,14.38
2023-03-29T20:40:04.073Z,12.73
2023-03-29T20:42:38.311Z,13.02
2023-03-29T20:45:18.645Z,12.43
2023-03-29T20:47:57.706Z,14.38
2023-03-29T20:50:31.011Z,13.82
2023-03-29T20:53:04.345Z,13.70
2023-03-29T20:55:39.121Z,13.75
2023-03-29T20:58:12.216Z,14.60
2023-03-29T21:00:46.915Z,14.48
2023-03-29T21:03:20.083Z,14.02
2023-03-29T21:05:55.915Z,15.68
2023-03-29T21:08:29.715Z,14.68
2023-03-29T21:11:04.281Z,14.68
2023-03-29T21:13:37.492Z,15.18
2023-03-29T21:16:11.595Z,17.17
2023-03-29T21:18:44.646Z,16.98
2023-03-29T21:21:17.704Z,17.52
2023-03-29T21:23:50.847Z,15.57
2023-03-29T21:26:26.139Z,17.48
2023-03-29T21:28:59.230Z,17.15
2023-03-29T21:31:32.205Z,17.33
2023-03-29T21:34:05.504Z,16.07
2023-03-29T21:36:39.817Z,16.52
2023-03-29T21:39:12.841Z,15.88
2023-03-29T21:41:47.422Z,14.80
2023-03-29T21:44:20.554Z,15.73
2023-03-29T21:46:53.644Z,15.32
2023-03-29T21:49:26.997Z,16.25
2023-03-29T21:52:00.000Z,15.32
2023-03-29T21:54:32.980Z,14.90
2023-03-29T21:57:07.433Z,15.37
2023-03-29T21:59:40.715Z,15.38
2023-03-29T22:02:13.744Z,14.43
2023-03-29T22:04:46.788Z,15.30
2023-03-29T22:07:22.787Z,14.77
2023-03-29T22:09:58.654Z,15.20
2023-03-29T22:12:37.135Z,14.43
2023-03-29T22:15:12.516Z,14.80
2023-03-29T22:17:45.672Z,14.73
2023-03-29T22:20:18.964Z,14.75
2023-03-29T22:22:55.673Z,14.07
2023-03-29T22:25:28.664Z,14.23
2023-03-29T22:28:03.033Z,14.10
2023-03-29T22:30:36.528Z,15.05
2023-03-29T22:33:09.606Z,13.73
2023-03-29T22:35:42.718Z,13.60
2023-03-29T22:38:15.807Z,14.07
2023-03-29T22:40:48.793Z,14.83
2023-03-29T22:43:23.351Z,14.87
2023-03-29T22:45:56.363Z,13.60
2023-03-29T22:48:29.338Z,14.75
2023-03-29T22:51:03.038Z,14.40
2023-03-29T22:56:09.932Z,12.65
2023-03-29T23:01:17.841Z,13.20
2023-03-29T23:03:50.933Z,13.63
2023-03-29T23:06:23.998Z,13.13
2023-03-29T23:08:56.971Z,13.57
2023-03-29T23:11:29.919Z,12.87
2023-03-29T23:14:04.885Z,14.37
2023-03-29T23:16:38.225Z,12.52
2023-03-29T23:19:11.369Z,14.27
2023-03-29T23:21:44.327Z,13.18
2023-03-29T23:24:19.216Z,12.20
2023-03-29T23:26:52.367Z,14.10
2023-03-29T23:29:26.837Z,12.93
2023-03-29T23:31:59.891Z,13.40
2023-03-29T23:34:33.164Z,14.85
2023-03-29T23:37:06.396Z,13.10
2023-03-29T23:39:39.520Z,14.82
2023-03-29T23:42:12.826Z,14.35
2023-03-29T23:44:47.383Z,14.90
2023-03-29T23:47:20.899Z,15.85
2023-03-29T23:49:54.671Z,15.25
2023-03-29T23:52:27.791Z,15.13
2023-03-29T23:55:01.557Z,13.75
2023-03-29T23:57:37.069Z,14.20
